Time;durP1;ratioP1;P1;durP2;ratioP2;P2;SDS_P1;SDS_P2;PMS_P1;PMS_P2;Temp;Humidity;BMP_temperature;BMP_pressure;BME280_temperature;BME280_humidity;BME280_pressure;Samples;Min_cycle;Max_cycle;Signal;HPM_P1;HPM_P2
2022/05/13 00:02:25;;;;;;;0.70;0.60;;;17.30;37.00;;;15.36;40.11;101273.47;12235016;19;20045;-82
2022/05/13 00:06:27;;;;;;;0.57;0.57;;;17.40;37.10;;;15.35;40.25;101282.31;12234124;19;20021;-82
2022/05/13 00:10:29;;;;;;;2.15;0.75;;;17.40;37.30;;;15.08;40.26;101255.19;12235814;19;20355;-82
2022/05/13 00:14:30;;;;;;;0.60;0.60;;;17.30;37.70;;;15.08;40.23;101260.47;12236530;19;20046;-82
2022/05/13 00:18:34;;;;;;;0.63;0.60;;;17.20;37.40;;;15.10;40.37;101269.09;12247695;19;20010;-82
2022/05/13 00:22:52;;;;;;;1.00;0.70;;;17.20;37.40;;;15.00;40.64;101261.78;12245893;19;20039;-82
2022/05/13 00:26:54;;;;;;;0.60;0.60;;;17.00;37.50;;;14.83;40.54;101246.28;12248326;19;20018;-83
2022/05/13 00:30:59;;;;;;;1.10;0.60;;;17.10;37.50;;;14.89;40.54;101260.81;12246668;19;20017;-82
2022/05/13 00:35:01;;;;;;;0.75;0.70;;;16.90;37.50;;;14.89;40.51;101261.66;12243861;19;20014;-82
2022/05/13 00:39:04;;;;;;;0.60;0.60;;;16.80;37.50;;;14.77;40.50;101246.66;12248822;19;20082;-82
2022/05/13 00:43:10;;;;;;;0.60;0.60;;;16.80;37.50;;;14.76;40.80;101248.44;12244537;19;20082;-83
2022/05/13 00:47:13;;;;;;;0.90;0.70;;;16.90;37.70;;;14.65;40.85;101239.56;12245942;19;20037;-83
2022/05/13 00:51:22;;;;;;;0.93;0.85;;;16.90;37.70;;;14.64;40.94;101256.31;12246045;19;20090;-82
2022/05/13 00:55:39;;;;;;;0.93;0.70;;;16.80;37.90;;;14.64;41.36;101270.28;12246006;19;20014;-83
2022/05/13 00:59:44;;;;;;;1.02;0.70;;;16.70;38.20;;;14.40;41.24;101241.09;12245745;19;20070;-83
2022/05/13 01:03:49;;;;;;;0.85;0.80;;;16.50;37.90;;;14.43;41.18;101259.31;12243275;19;20018;-83
2022/05/13 01:07:51;;;;;;;0.70;0.70;;;16.60;38.10;;;14.08;41.38;101232.59;12243159;19;20019;-82
2022/05/13 01:12:00;;;;;;;0.50;0.50;;;16.50;38.20;;;13.79;41.69;101208.13;12245136;19;20010;-83
2022/05/13 01:16:02;;;;;;;2.42;0.70;;;16.40;38.30;;;13.89;41.71;101270.47;12245562;19;20033;-82
2022/05/13 01:20:05;;;;;;;0.77;0.68;;;16.20;38.30;;;13.73;42.00;101253.97;12244567;19;20035;-82
2022/05/13 01:24:07;;;;;;;1.50;0.60;;;16.20;38.40;;;13.64;41.84;101244.03;12242020;19;20132;-82
2022/05/13 01:28:19;;;;;;;0.60;0.60;;;16.00;38.40;;;13.77;42.20;101257.25;12240797;19;20015;-82
2022/05/13 01:32:21;;;;;;;0.52;0.52;;;15.90;38.80;;;13.65;41.95;101235.22;12242781;19;20018;-82
2022/05/13 01:36:23;;;;;;;0.95;0.90;;;15.90;38.70;;;13.88;41.87;101257.44;12241286;19;20018;-83
2022/05/13 01:40:24;;;;;;;1.75;0.75;;;15.80;38.70;;;13.83;41.95;101246.41;12243468;19;20118;-82
2022/05/13 01:44:26;;;;;;;1.05;0.70;;;15.80;38.70;;;13.67;42.15;101247.31;12231144;19;20419;-82
2022/05/13 01:48:29;;;;;;;0.70;0.70;;;15.80;38.60;;;13.65;42.18;101257.03;12240637;19;20372;-82
2022/05/13 01:52:31;;;;;;;2.67;0.88;;;15.90;38.80;;;13.61;42.21;101250.31;12240238;19;20038;-82
2022/05/13 01:56:32;;;;;;;0.75;0.70;;;15.90;38.80;;;13.55;42.23;101250.66;12242146;19;20056;-82
2022/05/13 02:00:34;;;;;;;0.70;0.70;;;15.80;38.80;;;13.60;42.30;101260.88;12240850;19;20390;-82
2022/05/13 02:04:37;;;;;;;0.75;0.75;;;15.80;38.80;;;13.49;42.37;101256.25;12228929;19;20025;-82
2022/05/13 02:08:39;;;;;;;1.48;0.75;;;15.60;38.80;;;13.48;42.43;101259.84;12236565;19;20151;-82
2022/05/13 02:12:40;;;;;;;0.77;0.77;;;15.70;38.90;;;13.43;42.35;101269.75;12234274;19;20014;-82
2022/05/13 02:16:42;;;;;;;1.83;0.77;;;15.40;38.80;;;13.36;42.67;101244.81;12241335;19;20018;-82
2022/05/13 02:20:44;;;;;;;0.70;0.70;;;15.60;39.00;;;13.40;42.58;101260.28;12241443;19;20010;-82
2022/05/13 02:24:46;;;;;;;0.65;0.65;;;15.50;39.00;;;13.37;42.65;101255.22;12239156;19;20003;-82
2022/05/13 02:28:48;;;;;;;0.57;0.55;;;15.60;39.10;;;13.35;42.57;101261.47;12240899;19;20151;-82
2022/05/13 02:32:50;;;;;;;0.80;0.80;;;15.60;39.20;;;13.19;42.72;101241.34;12240040;19;20031;-82
2022/05/13 02:36:51;;;;;;;1.55;1.13;;;15.40;39.20;;;13.17;42.74;101245.84;12237451;19;20364;-81
2022/05/13 02:41:11;;;;;;;0.80;0.73;;;15.30;39.30;;;13.07;42.93;101242.06;12240938;19;20002;-82
2022/05/13 02:45:12;;;;;;;1.13;0.70;;;15.30;39.30;;;12.99;43.01;101233.81;12236733;19;20074;-82
2022/05/13 02:49:15;;;;;;;0.90;0.90;;;15.30;39.50;;;12.83;43.15;101216.31;12240252;19;20088;-82
2022/05/13 02:53:17;;;;;;;0.82;0.75;;;15.30;39.70;;;12.95;43.19;101242.75;12238299;19;20026;-82
2022/05/13 02:57:18;;;;;;;2.40;0.80;;;15.30;39.70;;;12.65;43.15;101185.06;12238978;19;20011;-82
2022/05/13 03:01:20;;;;;;;0.80;0.70;;;15.20;39.70;;;13.02;43.17;101252.81;12237592;19;20025;-83
2022/05/13 03:05:22;;;;;;;0.90;0.90;;;15.20;39.80;;;12.97;43.26;101240.91;12233665;19;20014;-82
2022/05/13 03:09:24;;;;;;;0.85;0.80;;;15.20;39.90;;;13.02;43.29;101246.72;12237705;19;20015;-82
2022/05/13 03:13:25;;;;;;;1.45;0.68;;;15.00;39.70;;;13.10;43.57;101255.00;12237578;19;20468;-82
2022/05/13 03:17:28;;;;;;;1.08;0.80;;;15.00;39.90;;;13.12;43.43;101237.38;12236543;19;20360;-82
2022/05/13 03:21:30;;;;;;;0.65;0.63;;;15.00;40.30;;;13.22;43.48;101248.19;12236456;19;20018;-82
2022/05/13 03:25:32;;;;;;;2.13;1.00;;;15.00;39.90;;;13.11;43.54;101219.97;12238156;19;20015;-82
2022/05/13 03:29:35;;;;;;;1.33;0.93;;;15.20;40.00;;;13.25;43.53;101233.13;12236495;19;20490;-82
2022/05/13 03:33:38;;;;;;;1.13;0.90;;;15.30;40.10;;;12.88;43.49;101175.88;12234632;19;20012;-82
2022/05/13 03:37:39;;;;;;;1.10;0.93;;;15.30;40.10;;;13.14;43.57;101222.41;12233195;19;20483;-82
2022/05/13 03:41:42;;;;;;;1.10;1.00;;;15.30;40.00;;;13.12;43.62;101226.88;12235641;19;20025;-82
2022/05/13 03:45:43;;;;;;;1.08;1.02;;;15.30;40.10;;;13.12;43.63;101236.53;12234405;19;20660;-83
2022/05/13 03:49:45;;;;;;;1.60;0.90;;;15.20;40.00;;;13.11;43.71;101237.50;12241110;19;20036;-82
2022/05/13 03:53:47;;;;;;;2.00;1.00;;;15.30;40.00;;;13.04;43.76;101243.09;12243950;19;20015;-82
2022/05/13 03:57:49;;;;;;;0.90;0.90;;;15.30;40.10;;;12.97;43.83;101227.78;12246317;19;20035;-82
2022/05/13 04:01:50;;;;;;;1.02;1.02;;;15.20;40.20;;;12.82;43.92;101225.09;12233863;19;20025;-83
2022/05/13 04:10:12;;;;;;;2.85;1.00;;;15.20;40.30;;;12.60;44.20;101194.00;12245698;19;20015;-82
2022/05/13 04:18:43;;;;;;;1.00;1.00;;;15.10;40.50;;;12.68;44.55;101204.06;12238146;19;20021;-82
2022/05/13 04:22:47;;;;;;;1.10;0.98;;;15.00;40.80;;;12.83;44.16;101241.69;12227614;19;20007;-82
2022/05/13 04:26:48;;;;;;;0.95;0.95;;;15.00;40.60;;;12.86;44.37;101236.28;12233407;19;20019;-82
2022/05/13 04:30:50;;;;;;;1.42;0.82;;;15.00;40.70;;;12.93;44.36;101236.75;12233729;19;20011;-83
2022/05/13 04:34:52;;;;;;;1.73;1.10;;;15.00;40.90;;;12.73;44.47;101207.28;12229877;19;20128;-81
2022/05/13 04:38:54;;;;;;;1.00;1.00;;;15.00;40.90;;;12.89;44.66;101227.38;12231033;19;20509;-79
2022/05/13 04:42:57;;;;;;;0.93;0.88;;;14.90;41.10;;;12.90;44.50;101245.63;12228053;19;20044;-79
2022/05/13 04:46:59;;;;;;;2.05;0.95;;;15.00;41.20;;;12.91;44.76;101241.22;12231667;19;20015;-79
2022/05/13 04:51:01;;;;;;;4.00;1.10;;;15.00;41.20;;;12.94;44.99;101241.09;12233933;19;20025;-79
2022/05/13 04:55:02;;;;;;;1.20;1.10;;;15.00;41.40;;;12.87;45.00;101218.75;12221599;19;20104;-79
2022/05/13 04:59:04;;;;;;;0.95;0.82;;;15.00;41.60;;;13.02;45.14;101236.25;12229567;19;20656;-79
2022/05/13 05:03:06;;;;;;;2.30;0.98;;;15.00;41.80;;;13.07;45.13;101235.03;12232261;19;20010;-79
2022/05/13 05:07:08;;;;;;;1.50;1.40;;;15.10;41.70;;;13.17;45.19;101243.22;12227308;19;20300;-79
2022/05/13 05:11:12;;;;;;;0.98;0.90;;;15.00;42.00;;;13.26;45.40;101236.66;12234787;19;20472;-79
2022/05/13 05:15:14;;;;;;;1.10;0.95;;;15.30;42.40;;;13.38;45.41;101237.69;12230082;19;20346;-79
2022/05/13 05:19:15;;;;;;;1.05;1.02;;;15.30;42.30;;;13.52;45.52;101242.13;12233271;19;20026;-79
2022/05/13 05:23:25;;;;;;;1.20;1.08;;;15.10;42.30;;;13.58;45.72;101226.84;12229868;19;20098;-79
2022/05/13 05:27:27;;;;;;;1.20;1.20;;;15.50;42.40;;;13.75;45.47;101222.38;12227113;19;20010;-79
2022/05/13 05:31:29;;;;;;;4.53;1.35;;;15.60;42.60;;;13.60;45.43;101169.03;12228978;19;20086;-80
2022/05/13 05:35:30;;;;;;;1.70;1.35;;;15.80;42.70;;;14.12;45.50;101218.31;12230755;19;20014;-80
2022/05/13 05:39:32;;;;;;;1.48;1.38;;;16.00;42.60;;;14.43;45.51;101225.13;12227659;19;20476;-80
2022/05/13 05:43:35;;;;;;;1.52;1.40;;;16.20;42.50;;;14.65;45.45;101216.75;12230225;19;20074;-81
2022/05/13 05:47:37;;;;;;;1.30;1.23;;;16.40;42.50;;;15.10;45.32;101230.47;12236643;19;20011;-79
2022/05/13 05:51:38;;;;;;;1.20;1.20;;;16.60;42.50;;;14.83;45.18;101127.97;12233208;19;20060;-79
2022/05/13 06:00:00;;;;;;;3.85;1.55;;;17.20;42.30;;;16.10;45.20;101213.19;12235314;19;20014;-79
2022/05/13 06:04:03;;;;;;;2.00;1.33;;;17.60;42.20;;;16.44;44.99;101218.66;12232703;19;20010;-79
2022/05/13 06:08:05;;;;;;;2.58;1.45;;;17.80;41.90;;;16.49;44.73;101185.72;12231085;19;20023;-79
2022/05/13 06:12:09;;;;;;;2.78;1.50;;;18.20;41.50;;;16.76;44.62;101195.22;12234300;19;20014;-79
2022/05/13 06:16:11;;;;;;;1.75;1.50;;;18.50;41.30;;;17.03;44.30;101213.47;12238299;19;20022;-80
2022/05/13 06:20:16;;;;;;;1.75;1.65;;;18.70;41.10;;;17.21;44.34;101209.47;12235996;19;20019;-79
2022/05/13 06:24:18;;;;;;;3.03;1.57;;;18.90;40.80;;;17.30;44.23;101183.31;12237263;19;20018;-79
2022/05/13 06:28:19;;;;;;;2.92;2.13;;;19.00;40.70;;;17.56;44.14;101202.44;12236600;19;20014;-80
2022/05/13 06:32:21;;;;;;;2.70;1.73;;;19.40;40.70;;;17.45;44.11;101159.22;12234487;19;20379;-79
2022/05/13 06:36:23;;;;;;;1.95;1.63;;;19.50;40.40;;;17.76;43.69;101175.31;12235257;19;20010;-79
2022/05/13 06:40:26;;;;;;;3.20;1.83;;;19.70;40.30;;;18.01;43.99;101211.28;12233898;19;20015;-79
2022/05/13 06:44:27;;;;;;;2.17;1.80;;;19.80;40.10;;;18.14;43.77;101214.59;12232477;19;20051;-79
2022/05/13 06:48:29;;;;;;;4.38;1.90;;;19.90;39.90;;;18.08;43.72;101180.72;12227671;19;20023;-79
2022/05/13 06:52:30;;;;;;;2.53;1.80;;;20.10;39.70;;;18.41;43.65;101210.72;12226462;19;20026;-79
2022/05/13 06:56:34;;;;;;;3.65;2.08;;;20.00;39.60;;;18.57;43.48;101197.94;12227762;19;20022;-80
2022/05/13 07:00:36;;;;;;;2.70;1.67;;;20.30;39.50;;;18.66;43.35;101184.91;12227390;19;20041;-79
2022/05/13 07:04:38;;;;;;;3.63;2.08;;;20.50;39.50;;;18.79;43.04;101172.38;12222498;19;20007;-78
2022/05/13 07:08:39;;;;;;;3.35;2.33;;;20.70;39.40;;;19.08;43.15;101187.66;12226552;19;20022;-79
2022/05/13 07:12:41;;;;;;;3.53;2.20;;;20.80;39.30;;;19.07;42.95;101139.19;12224326;19;20042;-80
2022/05/13 07:16:42;;;;;;;4.05;2.60;;;21.00;38.90;;;19.45;42.30;101180.09;12224353;19;20053;-80
2022/05/13 07:20:44;;;;;;;2.92;2.05;;;21.20;38.40;;;19.53;42.45;101160.91;12225335;19;20025;-80
2022/05/13 07:24:45;;;;;;;2.65;1.98;;;21.30;38.60;;;19.76;42.37;101178.31;12223454;19;20018;-79
2022/05/13 07:28:47;;;;;;;2.17;1.70;;;21.30;38.40;;;19.91;42.30;101178.81;12225512;19;20044;-79
2022/05/13 07:32:49;;;;;;;2.05;1.55;;;21.40;38.20;;;19.95;42.00;101155.50;12225619;19;20018;-79
2022/05/13 07:36:53;;;;;;;3.20;2.05;;;21.70;38.20;;;20.21;42.14;101172.59;12222810;19;20015;-79
2022/05/13 07:45:15;;;;;;;2.58;2.00;;;22.10;38.00;;;20.73;41.32;101201.59;12221310;19;20379;-80
2022/05/13 07:49:17;;;;;;;4.03;2.65;;;22.30;37.20;;;20.53;41.32;101169.75;12226275;19;20022;-79
2022/05/13 07:53:19;;;;;;;5.32;2.33;;;22.50;36.90;;;20.62;40.87;101189.31;12220906;19;20022;-79
2022/05/13 07:57:20;;;;;;;2.50;2.30;;;22.50;36.70;;;20.64;40.86;101199.78;12221384;19;20494;-79
2022/05/13 08:01:22;;;;;;;4.50;2.03;;;22.60;36.60;;;20.71;40.75;101212.38;12221559;19;20530;-80
2022/05/13 08:05:26;;;;;;;3.65;2.08;;;22.50;36.60;;;20.65;40.66;101199.63;12229235;19;20101;-79
2022/05/13 08:09:28;;;;;;;2.55;2.10;;;22.60;36.70;;;20.65;40.97;101204.13;12228208;19;20031;-79
2022/05/13 08:13:31;;;;;;;4.03;1.98;;;22.40;36.90;;;20.56;40.96;101208.44;12232013;19;20377;-80
2022/05/13 08:17:33;;;;;;;4.20;2.42;;;22.60;36.90;;;20.48;40.98;101195.00;12230870;19;20416;-80
2022/05/13 08:21:35;;;;;;;3.05;2.60;;;22.50;37.00;;;20.44;41.25;101197.09;12234530;19;20010;-80
2022/05/13 08:25:37;;;;;;;4.57;2.72;;;22.50;36.80;;;20.43;40.98;101190.09;12227457;19;20108;-78
2022/05/13 08:29:39;;;;;;;2.50;2.17;;;22.40;36.90;;;20.49;41.13;101199.31;12232235;19;20471;-79
2022/05/13 08:33:42;;;;;;;2.30;1.85;;;22.60;37.30;;;20.51;40.76;101198.19;12228064;19;20531;-78
2022/05/13 08:37:48;;;;;;;2.28;1.73;;;22.20;37.10;;;20.55;41.04;101193.50;12242594;19;20086;-79
2022/05/13 08:42:25;;;;;;;3.83;2.00;;;22.50;37.40;;;20.55;40.98;101193.50;12243918;19;20750;-78
2022/05/13 08:46:46;;;;;;;2.58;2.30;;;22.50;37.20;;;20.65;40.98;101218.22;12245506;19;20042;-78
2022/05/13 08:51:07;;;;;;;4.63;2.15;;;22.50;36.90;;;20.62;40.85;101221.16;12244703;19;20022;-79
2022/05/13 08:55:24;;;;;;;3.95;2.78;;;22.50;37.10;;;20.44;40.69;101183.81;12239980;19;20044;-78
2022/05/13 08:59:59;;;;;;;4.40;2.55;;;22.60;37.10;;;20.56;40.94;101211.09;12242581;19;20030;-78
2022/05/13 09:04:22;;;;;;;3.63;2.50;;;22.50;37.20;;;20.51;40.66;101224.72;12241986;19;20022;-78
2022/05/13 09:08:24;;;;;;;5.72;2.58;;;22.40;37.40;;;20.40;41.05;101218.72;12239064;19;20388;-78
2022/05/13 09:13:01;;;;;;;4.13;2.78;;;22.30;37.00;;;20.23;40.86;101185.75;12242198;19;20010;-78
2022/05/13 09:17:40;;;;;;;3.55;2.40;;;22.40;36.90;;;20.25;41.12;101208.50;12239228;19;20066;-78
2022/05/13 09:21:43;;;;;;;4.27;2.77;;;22.20;37.20;;;20.26;40.76;101219.94;12242235;19;20014;-78
2022/05/13 09:26:13;;;;;;;4.50;3.05;;;22.20;37.00;;;20.31;40.66;101223.88;12238075;19;20480;-78
2022/05/13 09:30:28;;;;;;;3.53;3.15;;;22.10;37.20;;;20.25;40.59;101218.25;12243018;19;20006;-78
2022/05/13 09:35:07;;;;;;;4.32;3.03;;;22.10;37.10;;;20.34;41.01;101212.97;12240414;19;20745;-78
2022/05/13 09:39:24;;;;;;;3.80;2.72;;;22.10;37.10;;;20.40;40.44;101211.59;12234900;19;20024;-78
2022/05/13 09:43:46;;;;;;;2.22;2.03;;;22.20;37.00;;;20.34;40.31;101194.41;12239853;19;20022;-78
2022/05/13 09:48:06;;;;;;;5.40;2.00;;;22.20;36.80;;;20.60;40.30;101212.47;12237565;19;20776;-78
2022/05/13 09:52:12;;;;;;;3.15;2.30;;;22.30;36.70;;;20.74;40.16;101201.47;12240039;19;20039;-79
2022/05/13 09:56:33;;;;;;;2.67;1.80;;;22.40;36.70;;;20.93;40.02;101197.97;12240590;19;20718;-78
2022/05/13 10:00:41;;;;;;;3.50;1.70;;;22.30;36.50;;;21.16;40.04;101202.97;12239529;19;20015;-79
2022/05/13 10:04:48;;;;;;;3.08;1.70;;;22.60;36.30;;;21.32;39.68;101197.91;12236261;19;20027;-78
2022/05/13 10:13:57;;;;;;;2.40;1.45;;;22.80;36.30;;;21.37;39.58;101201.03;12238772;19;20017;-78
2022/05/13 10:18:14;;;;;;;5.22;1.55;;;23.00;36.00;;;21.38;39.62;101189.41;12240067;19;20002;-78
2022/05/13 10:22:51;;;;;;;4.68;1.80;;;23.00;35.90;;;21.36;39.05;101187.84;12238912;19;20014;-78
2022/05/13 10:26:56;;;;;;;4.38;1.33;;;23.20;35.40;;;21.36;39.47;101182.53;12240567;19;20010;-78
2022/05/13 10:31:15;;;;;;;3.57;1.37;;;23.10;35.50;;;21.45;39.09;101179.06;12239248;19;20207;-79
2022/05/13 10:35:22;;;;;;;1.98;1.13;;;23.20;35.30;;;21.41;39.02;101188.28;12236181;19;20629;-78
2022/05/13 10:39:43;;;;;;;4.20;1.40;;;23.10;35.50;;;21.50;39.00;101194.56;12235894;19;20014;-78
2022/05/13 10:44:17;;;;;;;3.20;1.38;;;23.20;35.50;;;21.49;38.80;101190.22;12237133;19;20037;-78
2022/05/13 10:48:29;;;;;;;1.92;1.00;;;23.30;35.30;;;21.41;38.86;101180.31;12235292;19;20017;-78
2022/05/13 10:53:05;;;;;;;5.72;1.90;;;23.30;35.50;;;21.51;38.87;101189.09;12235444;19;20368;-78
2022/05/13 10:57:37;;;;;;;;;;;23.30;35.30;;;21.48;39.31;101184.06;12235607;19;20010;-78
2022/05/13 11:02:04;;;;;;;2.30;1.20;;;23.30;35.60;;;21.48;39.11;101185.91;12235231;19;20376;-78
2022/05/13 11:07:06;;;;;;;3.13;1.95;;;23.30;35.30;;;21.50;38.97;101197.22;12235743;19;20016;-78
2022/05/13 11:11:40;;;;;;;1.88;1.10;;;23.30;35.30;;;21.51;38.74;101188.25;12235902;19;20014;-78
2022/05/13 11:16:01;;;;;;;2.50;1.10;;;23.30;35.00;;;21.51;38.65;101185.59;12235660;19;20102;-79
2022/05/13 11:20:52;;;;;;;1.38;1.20;;;23.30;35.00;;;21.41;38.63;101172.34;12236911;19;20014;-78
2022/05/13 11:29:47;;;;;;;1.60;1.02;;;23.30;35.00;;;21.59;38.19;101175.91;12235926;19;20026;-79
2022/05/13 11:34:05;;;;;;;1.33;1.15;;;23.30;35.00;;;21.67;38.52;101161.91;12234493;19;20437;-78
2022/05/13 11:38:52;;;;;;;1.10;1.05;;;23.40;35.10;;;21.71;38.14;101192.53;12236282;19;20041;-78
2022/05/13 11:43:25;;;;;;;0.93;0.88;;;23.40;34.60;;;21.59;38.21;101175.91;12235280;19;20022;-78
2022/05/13 11:48:01;;;;;;;2.72;0.80;;;23.40;34.50;;;21.41;37.90;101180.31;12232852;19;20031;-78
2022/05/13 11:52:11;;;;;;;2.42;0.88;;;23.40;34.30;;;21.48;37.66;101185.91;12235782;19;20019;-78
2022/05/13 11:56:25;;;;;;;1.90;1.10;;;23.30;34.10;;;21.43;37.94;101170.38;12235783;19;20035;-78
2022/05/13 12:00:38;;;;;;;1.48;1.02;;;23.30;34.00;;;21.56;37.42;101181.53;12236201;19;20043;-78
2022/05/13 12:05:18;;;;;;;10.20;1.50;;;23.30;33.80;;;21.57;37.19;101166.41;12231459;19;20019;-79
2022/05/13 12:09:40;;;;;;;1.80;1.10;;;23.30;33.80;;;21.44;37.22;101153.44;12235035;19;20054;-79
2022/05/13 12:14:23;;;;;;;2.25;1.00;;;23.30;33.40;;;21.65;36.77;101182.47;12244318;19;20034;-78
2022/05/13 12:18:56;;;;;;;6.22;0.88;;;23.30;33.60;;;21.67;36.99;101158.41;12245054;19;20421;-79
2022/05/13 12:23:31;;;;;;;2.25;1.40;;;23.40;33.80;;;21.75;36.67;101187.75;12243472;19;20081;-78
2022/05/13 12:27:45;;;;;;;2.05;1.15;;;23.50;33.40;;;21.69;36.55;101175.91;12243012;19;20015;-78
2022/05/13 12:31:52;;;;;;;2.60;1.35;;;23.50;33.50;;;21.76;36.90;101192.09;12244877;19;20090;-79
2022/05/13 12:40:59;;;;;;;2.75;1.40;;;23.50;33.70;;;21.63;36.81;101187.94;12245928;19;20511;-78
2022/05/13 12:45:01;;;;;;;3.15;1.63;;;23.50;33.50;;;21.64;36.93;101202.06;12240797;19;20045;-78
2022/05/13 12:49:48;;;;;;;1.60;1.30;;;23.40;33.50;;;21.60;36.71;101201.53;12245097;19;20345;-78
2022/05/13 12:53:56;;;;;;;3.75;1.45;;;23.40;33.30;;;21.55;36.65;101211.75;12241409;19;20022;-78
2022/05/13 12:58:04;;;;;;;2.45;1.10;;;23.30;33.40;;;21.55;36.55;101210.91;12242766;19;20018;-79
2022/05/13 13:02:06;;;;;;;4.32;1.60;;;23.30;33.50;;;21.46;36.57;101212.59;12243823;19;20081;-79
2022/05/13 13:06:16;;;;;;;1.98;1.02;;;23.30;33.40;;;21.41;36.56;101218.38;12242613;19;20337;-79
2022/05/13 13:10:20;;;;;;;1.35;1.08;;;23.20;33.10;;;21.19;36.04;101198.22;12241367;19;20244;-78
2022/05/13 13:15:05;;;;;;;2.80;1.33;;;23.20;33.10;;;21.17;36.60;101204.66;12239613;19;20342;-78
2022/05/13 13:19:20;;;;;;;2.70;0.93;;;23.10;33.00;;;21.24;36.05;101239.47;12238260;19;20014;-78
2022/05/13 13:23:22;;;;;;;3.25;1.30;;;23.10;33.00;;;21.09;36.48;101231.94;12240679;19;20052;-78
2022/05/13 13:27:30;;;;;;;4.45;1.40;;;23.00;33.10;;;20.99;36.17;101226.63;12239572;19;20523;-78
2022/05/13 13:31:45;;;;;;;2.00;1.00;;;23.00;33.10;;;21.07;36.27;101235.72;12241708;19;20022;-78
2022/05/13 13:35:47;;;;;;;1.88;0.80;;;22.80;33.30;;;20.96;36.35;101226.91;12239668;19;20018;-78
2022/05/13 13:39:49;;;;;;;2.10;1.05;;;22.70;33.50;;;20.95;36.39;101227.91;12242294;19;20492;-78
2022/05/13 13:43:57;;;;;;;2.97;1.30;;;22.90;33.60;;;20.99;36.49;101260.31;12230903;19;20431;-78
2022/05/13 13:47:58;;;;;;;1.85;1.02;;;23.00;33.40;;;20.77;36.41;101240.19;12203164;19;20026;-78
2022/05/13 13:52:05;;;;;;;2.28;1.10;;;22.60;33.40;;;20.78;36.44;101249.81;12221081;19;20035;-78
2022/05/13 13:56:18;;;;;;;3.33;1.10;;;22.70;33.70;;;20.68;36.67;101235.69;12217970;19;20018;-78
2022/05/13 14:00:30;;;;;;;5.05;1.30;;;22.70;33.90;;;20.67;36.42;101234.00;12220102;19;20031;-81
2022/05/13 14:04:32;;;;;;;3.60;1.70;;;22.60;33.80;;;20.81;36.52;101259.31;12223460;19;20022;-86
2022/05/13 14:08:40;;;;;;;2.70;1.10;;;22.60;33.90;;;20.52;36.78;101212.28;12219985;19;20030;-82
2022/05/13 14:12:42;;;;;;;1.63;1.13;;;22.70;33.80;;;20.86;36.56;101251.78;12223522;19;20503;-81
2022/05/13 14:17:01;;;;;;;2.17;0.93;;;22.60;33.70;;;20.89;36.54;101227.59;12220029;19;20022;-81
2022/05/13 14:21:28;;;;;;;3.28;1.20;;;22.70;33.70;;;21.20;36.54;101252.22;12225746;19;20011;-81
2022/05/13 14:25:40;;;;;;;3.42;1.02;;;22.80;33.90;;;21.41;36.02;101262.69;12220831;19;20011;-82
2022/05/13 14:29:43;;;;;;;2.20;0.90;;;22.90;33.80;;;21.59;36.59;101257.47;12224447;19;20460;-82
2022/05/13 14:33:54;;;;;;;3.78;1.15;;;23.10;34.10;;;21.64;35.75;101229.47;12218561;19;20029;-84
2022/05/13 14:38:05;;;;;;;1.88;1.05;;;23.10;33.20;;;21.78;35.90;101244.13;12221853;19;20492;-82
2022/05/13 14:42:38;;;;;;;3.83;1.10;;;23.40;33.10;;;21.90;35.51;101266.09;12218335;19;20027;-80
2022/05/13 14:46:58;;;;;;;2.90;1.35;;;23.40;32.90;;;21.75;35.28;101247.09;12225574;19;20023;-80
2022/05/13 14:51:24;;;;;;;4.32;1.00;;;23.50;32.80;;;21.86;35.72;101273.50;12222066;19;20045;-80
2022/05/13 14:55:38;;;;;;;4.68;1.70;;;23.50;32.90;;;21.70;35.72;101265.28;12225457;19;20018;-80
2022/05/13 14:59:59;;;;;;;2.13;0.90;;;23.60;32.90;;;21.66;35.38;101279.88;12217943;19;20014;-82
2022/05/13 15:04:32;;;;;;;2.75;1.00;;;23.50;32.70;;;21.51;35.74;101260.03;12221102;19;20483;-81
2022/05/13 15:08:50;;;;;;;3.38;0.95;;;23.50;33.00;;;21.50;35.65;101264.50;12223297;19;20498;-81
2022/05/13 15:12:53;;;;;;;3.47;0.98;;;23.40;32.90;;;21.39;35.47;101267.31;12211183;19;20441;-81
2022/05/13 15:16:55;;;;;;;1.45;0.65;;;23.30;32.90;;;21.30;35.83;101262.81;12217034;19;20021;-81
2022/05/13 15:20:56;;;;;;;6.22;0.95;;;23.30;32.80;;;21.40;35.72;101298.22;12222743;19;20022;-80
2022/05/13 15:24:58;;;;;;;2.90;1.00;;;23.30;32.90;;;21.18;35.50;101278.06;12219013;19;20043;-80
2022/05/13 15:29:00;;;;;;;1.77;0.80;;;23.00;32.70;;;21.20;35.63;101300.84;12221891;19;20058;-80
2022/05/13 15:33:01;;;;;;;3.58;1.00;;;23.10;33.00;;;20.97;35.89;101272.88;12220982;19;20006;-80
2022/05/13 15:37:05;;;;;;;5.00;0.82;;;22.90;33.00;;;21.05;35.98;101291.59;12218575;19;20010;-80
2022/05/13 15:41:07;;;;;;;2.50;1.02;;;23.00;33.20;;;21.18;35.80;101323.22;12217465;19;20429;-80
2022/05/13 15:45:09;;;;;;;3.55;0.82;;;23.00;33.70;;;21.14;35.83;101325.31;12219249;19;20348;-81
2022/05/13 15:53:30;;;;;;;1.35;0.65;;;22.90;33.50;;;21.02;35.63;101323.75;12229078;19;20038;-81
2022/05/13 15:57:50;;;;;;;4.32;0.93;;;22.80;33.30;;;21.10;35.65;101331.88;12232887;19;20015;-80
2022/05/13 16:01:52;;;;;;;4.40;0.80;;;22.70;33.00;;;20.92;35.96;101314.94;12229142;19;20390;-80
2022/05/13 16:05:54;;;;;;;1.23;0.70;;;22.80;33.00;;;20.90;35.75;101312.44;12228412;19;20010;-81
2022/05/13 16:09:56;;;;;;;1.58;0.70;;;22.80;32.90;;;20.81;35.61;101313.25;12235092;19;20018;-81
2022/05/13 16:13:58;;;;;;;0.68;0.68;;;22.70;32.90;;;20.69;35.57;101295.78;12231064;19;20018;-80
2022/05/13 16:18:01;;;;;;;1.15;0.60;;;22.70;32.90;;;20.90;35.35;101336.34;12233948;19;20369;-84
2022/05/13 16:22:07;;;;;;;2.20;0.80;;;22.80;33.10;;;20.95;35.61;101349.19;12233875;19;20044;-83
2022/05/13 16:26:14;;;;;;;2.13;0.70;;;22.70;33.10;;;20.87;35.83;101341.88;12235515;19;20487;-84
2022/05/13 16:30:16;;;;;;;1.38;0.60;;;22.80;33.20;;;20.82;35.89;101362.72;12234695;19;20022;-84
2022/05/13 16:34:19;;;;;;;0.55;0.55;;;22.60;33.20;;;20.69;35.81;101352.34;12229808;19;20015;-84
2022/05/13 16:38:20;;;;;;;1.92;1.17;;;22.80;33.30;;;20.45;35.91;101330.59;12233576;19;20018;-89
2022/05/13 16:42:22;;;;;;;7.78;0.82;;;22.60;33.50;;;20.44;36.02;101350.97;12234014;19;20035;-79
2022/05/13 16:46:23;;;;;;;3.88;1.00;;;22.50;33.60;;;20.31;36.11;101337.09;12233015;19;20022;-79
2022/05/13 16:50:29;;;;;;;2.70;1.00;;;22.40;33.60;;;20.46;36.14;101364.09;12216906;19;20046;-80
2022/05/13 16:54:30;;;;;;;4.07;0.70;;;22.40;33.90;;;20.36;36.01;101361.41;12229763;19;20412;-79
2022/05/13 16:58:32;;;;;;;2.17;0.65;;;22.30;33.80;;;20.36;36.13;101363.19;12230069;19;20042;-80
2022/05/13 17:02:34;;;;;;;1.85;0.93;;;22.20;33.80;;;20.42;36.49;101368.00;12230643;19;20033;-80
2022/05/13 17:06:36;;;;;;;2.83;0.75;;;22.20;33.90;;;20.29;36.28;101362.91;12232018;19;20109;-80
2022/05/13 17:19:20;;;;;;;1.67;0.75;;;22.20;34.20;;;20.29;36.30;101353.13;12229699;19;20018;-79
2022/05/13 17:23:22;;;;;;;1.67;0.88;;;22.30;34.00;;;20.28;36.18;101359.41;12227909;19;20030;-77
2022/05/13 17:27:39;;;;;;;3.40;1.33;;;22.10;33.90;;;20.43;36.45;101385.59;12229485;19;20633;-78
2022/05/13 17:31:41;;;;;;;4.25;0.80;;;22.20;34.00;;;20.37;36.22;101386.13;12228996;19;20506;-78
2022/05/13 17:35:43;;;;;;;3.05;0.93;;;22.20;34.00;;;20.11;36.12;101350.22;12227903;19;20078;-77
2022/05/13 17:39:46;;;;;;;15.52;0.95;;;22.10;34.00;;;20.07;36.48;101346.19;12228652;19;20011;-79
2022/05/13 17:43:48;;;;;;;1.70;0.80;;;22.10;33.90;;;20.13;36.28;101363.38;12226602;19;20650;-79
2022/05/13 17:47:50;;;;;;;3.03;0.93;;;22.10;34.00;;;20.18;36.56;101374.44;12229644;19;20067;-79